createdAt,value
2022-11-13T00:01:24.689Z,7.16
2022-11-13T00:04:10.655Z,7.16
2022-11-13T00:06:59.138Z,7.23
2022-11-13T00:09:44.530Z,7.22
2022-11-13T00:12:29.675Z,7.23
2022-11-13T00:15:15.028Z,7.20
2022-11-13T00:18:03.151Z,7.12
2022-11-13T00:20:47.862Z,7.08
2022-11-13T00:23:34.899Z,7.03
2022-11-13T00:26:22.216Z,7.01
2022-11-13T00:29:07.113Z,6.93
2022-11-13T00:31:52.175Z,6.91
2022-11-13T00:34:52.543Z,6.83
2022-11-13T00:37:37.493Z,6.74
2022-11-13T00:40:22.465Z,6.70
2022-11-13T00:43:07.680Z,6.57
2022-11-13T00:45:52.529Z,6.51
2022-11-13T00:48:37.741Z,6.45
2022-11-13T00:51:23.473Z,6.46
2022-11-13T00:54:08.453Z,6.40
2022-11-13T00:56:53.448Z,6.42
2022-11-13T00:59:38.476Z,6.37
2022-11-13T01:02:23.751Z,6.41
2022-11-13T01:05:08.787Z,6.43
2022-11-13T01:07:54.345Z,6.39
2022-11-13T01:10:51.901Z,6.26
2022-11-13T01:13:40.130Z,6.21
2022-11-13T01:16:26.827Z,6.14
2022-11-13T01:19:11.536Z,6.09
2022-11-13T01:21:56.718Z,6.04
2022-11-13T01:24:41.659Z,6.03
2022-11-13T01:27:26.783Z,6.01
2022-11-13T01:30:12.071Z,6.07
2022-11-13T01:32:57.151Z,6.06
2022-11-13T01:35:42.123Z,6.04
2022-11-13T01:38:27.586Z,5.88
2022-11-13T01:41:23.171Z,5.89
2022-11-13T01:44:13.989Z,5.88
2022-11-13T01:46:59.189Z,5.84
2022-11-13T01:49:45.847Z,5.83
2022-11-13T01:52:38.759Z,5.80
2022-11-13T01:55:23.723Z,5.80
2022-11-13T01:58:10.989Z,5.78
2022-11-13T02:00:56.491Z,5.81
2022-11-13T02:03:41.392Z,5.71
2022-11-13T02:06:30.553Z,5.67
2022-11-13T02:09:20.003Z,5.67
2022-11-13T02:12:08.042Z,5.63
2022-11-13T02:14:54.499Z,5.72
2022-11-13T02:17:47.033Z,5.79
2022-11-13T02:20:40.149Z,5.81
2022-11-13T02:23:37.574Z,5.83
2022-11-13T02:26:25.226Z,5.82
2022-11-13T02:29:09.991Z,5.77
2022-11-13T02:31:55.629Z,5.76
2022-11-13T02:34:40.438Z,5.73
2022-11-13T02:37:25.645Z,5.72
2022-11-13T02:40:11.116Z,5.71
2022-11-13T02:42:56.231Z,5.68
2022-11-13T02:45:41.363Z,5.71
2022-11-13T02:48:26.458Z,5.69
2022-11-13T02:51:11.973Z,5.70
2022-11-13T02:53:56.788Z,5.66
2022-11-13T02:56:41.946Z,5.63
2022-11-13T02:59:26.951Z,5.56
2022-11-13T03:02:12.180Z,5.49
2022-11-13T03:05:13.600Z,5.50
2022-11-13T03:07:58.740Z,5.43
2022-11-13T03:10:43.783Z,5.36
2022-11-13T03:13:28.865Z,5.25
2022-11-13T03:16:16.563Z,5.25
2022-11-13T03:19:01.993Z,5.25
2022-11-13T03:21:47.036Z,5.17
2022-11-13T03:24:32.318Z,5.18
2022-11-13T03:27:17.310Z,5.11
2022-11-13T03:30:02.208Z,5.03
2022-11-13T03:32:47.254Z,5.09
2022-11-13T03:35:38.075Z,5.10
2022-11-13T03:38:27.755Z,5.02
2022-11-13T03:41:14.758Z,5.01
2022-11-13T03:43:59.507Z,4.98
2022-11-13T03:46:44.676Z,4.91
2022-11-13T03:49:30.004Z,4.90
2022-11-13T03:52:14.943Z,4.87
2022-11-13T03:54:59.991Z,4.79
2022-11-13T03:57:47.240Z,4.85
2022-11-13T04:00:32.926Z,4.79
2022-11-13T04:03:17.689Z,4.74
2022-11-13T04:06:02.862Z,4.72
2022-11-13T04:08:47.841Z,4.66
2022-11-13T04:11:33.071Z,4.64
2022-11-13T04:14:18.039Z,4.54
2022-11-13T04:17:02.910Z,4.50
2022-11-13T04:19:47.991Z,4.48
2022-11-13T04:22:33.467Z,4.52
2022-11-13T04:25:18.547Z,4.49
2022-11-13T04:28:03.651Z,4.39
2022-11-13T04:30:48.858Z,4.46
2022-11-13T04:33:33.708Z,4.60
2022-11-13T04:36:18.630Z,4.57
2022-11-13T04:39:03.646Z,4.54
2022-11-13T04:42:07.067Z,4.50
2022-11-13T04:44:52.135Z,4.44
2022-11-13T04:47:37.221Z,4.34
2022-11-13T04:50:23.156Z,4.20
2022-11-13T04:53:08.254Z,4.18
2022-11-13T04:55:53.467Z,4.14
2022-11-13T04:58:38.626Z,4.16
2022-11-13T05:01:23.833Z,4.24
2022-11-13T05:04:12.550Z,4.14
2022-11-13T05:06:57.725Z,4.13
2022-11-13T05:09:43.367Z,4.08
2022-11-13T05:12:28.247Z,4.09
2022-11-13T05:15:13.498Z,4.11
2022-11-13T05:17:58.374Z,4.13
2022-11-13T05:20:43.526Z,4.09
2022-11-13T05:23:28.845Z,4.08
2022-11-13T05:26:13.938Z,4.09
2022-11-13T05:29:01.826Z,4.07
2022-11-13T05:31:47.529Z,4.13
2022-11-13T05:34:32.479Z,4.12
2022-11-13T05:37:17.602Z,4.14
2022-11-13T05:40:02.659Z,4.10
2022-11-13T05:42:47.813Z,3.98
2022-11-13T05:45:32.902Z,3.96
2022-11-13T05:48:18.300Z,3.93
2022-11-13T05:51:09.003Z,3.89
2022-11-13T05:53:54.555Z,3.85
2022-11-13T05:56:40.304Z,3.85
2022-11-13T05:59:25.466Z,3.84
2022-11-13T06:02:10.676Z,3.87
2022-11-13T06:04:56.709Z,3.84
2022-11-13T06:07:41.633Z,3.77
2022-11-13T06:10:26.855Z,3.71
2022-11-13T06:13:11.673Z,3.71
2022-11-13T06:16:24.701Z,3.65
2022-11-13T06:19:10.976Z,3.64
2022-11-13T06:21:56.116Z,3.70
2022-11-13T06:24:41.081Z,3.73
2022-11-13T06:27:27.517Z,3.69
2022-11-13T06:30:12.913Z,3.70
2022-11-13T06:32:57.714Z,3.66
2022-11-13T06:35:42.934Z,3.67
2022-11-13T06:38:31.780Z,3.63
2022-11-13T06:41:19.768Z,3.68
2022-11-13T06:44:05.351Z,3.69
2022-11-13T06:46:50.293Z,3.75
2022-11-13T06:49:35.411Z,3.77
2022-11-13T06:52:20.737Z,3.77
2022-11-13T06:55:06.009Z,3.77
2022-11-13T06:57:50.985Z,3.72
2022-11-13T07:00:38.209Z,3.80
2022-11-13T07:03:26.723Z,3.80
2022-11-13T07:06:15.895Z,3.89
2022-11-13T07:09:01.071Z,4.00
2022-11-13T07:11:46.066Z,3.95
2022-11-13T07:14:31.268Z,4.12
2022-11-13T07:17:16.243Z,4.12
2022-11-13T07:20:01.069Z,4.25
2022-11-13T07:22:46.117Z,4.34
2022-11-13T07:25:31.872Z,4.38
2022-11-13T07:28:17.030Z,4.50
2022-11-13T07:31:01.899Z,4.54
2022-11-13T07:33:48.680Z,4.63
2022-11-13T07:36:33.446Z,4.68
2022-11-13T07:39:18.645Z,4.71
2022-11-13T07:42:03.810Z,4.70
2022-11-13T07:44:54.401Z,4.78
2022-11-13T07:47:40.564Z,4.81
2022-11-13T07:50:30.464Z,4.88
2022-11-13T07:53:16.277Z,4.89
2022-11-13T07:56:04.678Z,4.97
2022-11-13T07:58:49.601Z,5.05
2022-11-13T08:01:34.755Z,5.10
2022-11-13T08:04:19.923Z,5.21
2022-11-13T08:07:05.442Z,5.23
2022-11-13T08:09:50.411Z,5.31
2022-11-13T08:12:35.545Z,5.44
2022-11-13T08:15:20.690Z,5.55
2022-11-13T08:18:06.205Z,5.66
2022-11-13T08:20:51.191Z,5.73
2022-11-13T08:23:36.342Z,5.75
2022-11-13T08:26:21.458Z,5.84
2022-11-13T08:29:06.635Z,5.92
2022-11-13T08:31:51.487Z,5.97
2022-11-13T08:34:37.195Z,6.06
2022-11-13T08:37:21.993Z,6.17
2022-11-13T08:40:07.880Z,6.21
2022-11-13T08:42:52.820Z,6.30
2022-11-13T08:45:37.873Z,6.36
2022-11-13T08:48:23.385Z,6.44
2022-11-13T08:51:08.611Z,6.54
2022-11-13T08:53:53.428Z,6.65
2022-11-13T08:56:38.565Z,6.75
2022-11-13T08:59:23.836Z,6.68
2022-11-13T09:02:13.918Z,6.83
2022-11-13T09:04:58.759Z,7.00
2022-11-13T09:07:43.949Z,7.09
2022-11-13T09:10:29.251Z,7.28
2022-11-13T09:13:14.123Z,7.38
2022-11-13T09:16:02.752Z,7.52
2022-11-13T09:18:51.090Z,7.68
2022-11-13T09:21:36.153Z,7.72
2022-11-13T09:24:21.351Z,8.04
2022-11-13T09:27:06.478Z,8.09
2022-11-13T09:29:55.357Z,8.34
2022-11-13T09:32:40.284Z,8.73
2022-11-13T09:35:35.969Z,9.12
2022-11-13T09:38:20.710Z,9.36
2022-11-13T09:41:12.036Z,9.19
2022-11-13T09:44:01.793Z,9.40
2022-11-13T09:47:00.002Z,9.48
2022-11-13T09:49:48.976Z,9.52
2022-11-13T09:52:37.387Z,9.89
2022-11-13T09:55:29.481Z,9.99
2022-11-13T09:59:12.567Z,9.94
2022-11-13T10:02:33.643Z,10.07
2022-11-13T10:05:37.178Z,10.20
2022-11-13T10:08:45.865Z,10.38
2022-11-13T10:11:40.534Z,10.44
2022-11-13T10:14:39.555Z,10.79
2022-11-13T10:17:30.831Z,10.97
2022-11-13T10:20:22.752Z,11.88
2022-11-13T10:23:21.121Z,11.20
2022-11-13T10:26:21.787Z,11.10
2022-11-13T10:29:16.085Z,11.23
2022-11-13T10:32:13.541Z,11.24
2022-11-13T10:35:19.414Z,11.42
2022-11-13T10:38:33.589Z,11.73
2022-11-13T10:41:20.840Z,11.84
2022-11-13T10:44:17.641Z,11.67
2022-11-13T10:47:26.546Z,12.23
2022-11-13T10:50:25.262Z,11.88
2022-11-13T10:53:16.771Z,12.61
2022-11-13T10:56:01.779Z,13.13
2022-11-13T10:59:03.709Z,12.30
2022-11-13T11:01:50.016Z,12.93
2022-11-13T11:04:34.641Z,13.96
2022-11-13T11:07:22.701Z,12.44
2022-11-13T11:10:32.011Z,12.39
2022-11-13T11:13:24.169Z,12.35
2022-11-13T11:16:13.697Z,12.39
2022-11-13T11:19:04.651Z,12.88
2022-11-13T11:21:52.398Z,12.78
2022-11-13T11:24:44.732Z,13.34
2022-11-13T11:27:49.022Z,13.41
2022-11-13T11:30:42.742Z,13.03
2022-11-13T11:33:33.996Z,13.09
2022-11-13T11:36:32.098Z,12.85
2022-11-13T11:39:19.677Z,12.91
2022-11-13T11:42:18.567Z,12.87
2022-11-13T11:45:16.597Z,12.87
2022-11-13T11:48:04.199Z,12.85
2022-11-13T11:51:12.884Z,12.81
2022-11-13T11:54:11.124Z,12.91
2022-11-13T11:56:59.863Z,12.95
2022-11-13T12:00:16.429Z,12.96
2022-11-13T12:03:33.147Z,13.05
2022-11-13T12:06:39.853Z,13.26
2022-11-13T12:09:30.661Z,13.21
2022-11-13T12:12:46.338Z,13.21
2022-11-13T12:15:49.987Z,13.32
2022-11-13T12:18:44.466Z,13.36
2022-11-13T12:22:03.927Z,13.42
2022-11-13T12:25:24.368Z,13.50
2022-11-13T12:28:40.844Z,13.53
2022-11-13T12:31:29.100Z,13.50
2022-11-13T12:34:20.975Z,13.59
2022-11-13T12:37:12.857Z,13.53
2022-11-13T12:40:04.431Z,13.65
2022-11-13T12:43:13.411Z,13.72
2022-11-13T12:46:05.889Z,13.66
2022-11-13T12:48:50.727Z,13.87
2022-11-13T12:51:40.645Z,13.90
2022-11-13T12:54:36.345Z,14.04
2022-11-13T12:57:27.195Z,14.14
2022-11-13T13:00:27.117Z,14.07
2022-11-13T13:03:12.035Z,14.22
2022-11-13T13:06:15.134Z,13.99
2022-11-13T13:09:21.454Z,14.23
2022-11-13T13:12:14.560Z,14.29
2022-11-13T13:15:25.042Z,14.40
2022-11-13T13:18:35.446Z,14.68
2022-11-13T13:21:20.807Z,14.74
2022-11-13T13:24:26.666Z,14.34
2022-11-13T13:27:27.034Z,14.39
2022-11-13T13:30:25.100Z,14.35
2022-11-13T13:33:25.793Z,14.49
2022-11-13T13:36:42.721Z,14.42
2022-11-13T13:39:56.642Z,14.25
2022-11-13T13:43:03.666Z,14.13
2022-11-13T13:46:07.453Z,14.72
2022-11-13T13:48:56.721Z,14.79
2022-11-13T13:51:47.975Z,14.39
2022-11-13T13:54:35.549Z,14.29
2022-11-13T13:57:22.635Z,14.21
2022-11-13T14:00:13.441Z,14.14
2022-11-13T14:02:58.635Z,14.18
2022-11-13T14:05:43.454Z,14.49
2022-11-13T14:08:29.490Z,14.16
2022-11-13T14:11:26.622Z,13.96
2022-11-13T14:14:21.742Z,13.95
2022-11-13T14:17:09.866Z,14.09
2022-11-13T14:20:00.461Z,14.42
2022-11-13T14:22:55.198Z,14.32
2022-11-13T14:25:42.987Z,14.01
2022-11-13T14:28:31.360Z,13.75
2022-11-13T14:31:16.925Z,13.74
2022-11-13T14:34:10.140Z,13.53
2022-11-13T14:36:55.303Z,13.41
2022-11-13T14:39:40.448Z,13.39
2022-11-13T14:42:37.290Z,13.34
2022-11-13T14:45:25.373Z,13.38
2022-11-13T14:48:26.051Z,13.25
2022-11-13T14:51:31.740Z,13.24
2022-11-13T14:55:07.995Z,13.40
2022-11-13T14:57:49.196Z,13.33
2022-11-13T15:00:36.351Z,13.09
2022-11-13T15:03:21.470Z,12.81
2022-11-13T15:06:14.753Z,12.32
2022-11-13T15:09:00.589Z,12.14
2022-11-13T15:11:45.596Z,11.87
2022-11-13T15:14:31.354Z,11.52
2022-11-13T15:17:19.703Z,11.21
2022-11-13T15:20:09.472Z,10.94
2022-11-13T15:22:55.486Z,10.80
2022-11-13T15:25:40.292Z,10.80
2022-11-13T15:28:25.338Z,10.67
2022-11-13T15:31:30.362Z,10.48
2022-11-13T15:34:16.246Z,10.33
2022-11-13T15:37:01.453Z,10.22
2022-11-13T15:39:46.928Z,10.14
2022-11-13T15:42:35.277Z,10.08
2022-11-13T15:45:20.132Z,10.01
2022-11-13T15:48:09.383Z,9.88
2022-11-13T15:50:54.405Z,9.77
2022-11-13T15:53:39.599Z,9.71
2022-11-13T15:56:24.872Z,9.63
2022-11-13T15:59:12.850Z,9.52
2022-11-13T16:01:58.424Z,9.43
2022-11-13T16:04:56.175Z,9.38
2022-11-13T16:07:42.525Z,9.38
2022-11-13T16:10:27.961Z,9.28
2022-11-13T16:13:12.843Z,9.28
2022-11-13T16:15:59.091Z,9.22
2022-11-13T16:18:44.406Z,9.14
2022-11-13T16:21:30.269Z,9.07
2022-11-13T16:24:15.705Z,8.95
2022-11-13T16:27:02.386Z,8.88
2022-11-13T16:29:47.650Z,8.76
2022-11-13T16:32:33.013Z,8.63
2022-11-13T16:35:19.776Z,8.56
2022-11-13T16:38:11.646Z,8.47
2022-11-13T16:40:56.691Z,8.51
2022-11-13T16:43:42.654Z,8.44
2022-11-13T16:46:32.877Z,8.34
2022-11-13T16:49:20.106Z,8.24
2022-11-13T16:52:05.346Z,8.16
2022-11-13T16:54:51.375Z,8.22
2022-11-13T16:57:36.574Z,8.25
2022-11-13T17:00:21.635Z,8.22
2022-11-13T17:03:06.657Z,8.16
2022-11-13T17:05:52.489Z,8.09
2022-11-13T17:08:37.393Z,7.97
2022-11-13T17:11:24.130Z,7.85
2022-11-13T17:14:10.703Z,7.80
2022-11-13T17:16:55.482Z,7.75
2022-11-13T17:19:43.932Z,7.73
2022-11-13T17:22:28.914Z,7.66
2022-11-13T17:25:18.489Z,7.56
2022-11-13T17:28:03.650Z,7.50
2022-11-13T17:30:48.716Z,7.48
2022-11-13T17:33:34.398Z,7.56
2022-11-13T17:36:19.938Z,7.50
2022-11-13T17:39:05.013Z,7.52
2022-11-13T17:41:52.857Z,7.48
2022-11-13T17:44:37.895Z,7.50
2022-11-13T17:47:23.066Z,7.41
2022-11-13T17:50:08.595Z,7.34
2022-11-13T17:52:53.653Z,7.22
2022-11-13T17:55:38.718Z,7.17
2022-11-13T17:58:24.713Z,7.08
2022-11-13T18:01:15.589Z,7.02
2022-11-13T18:04:00.544Z,6.92
2022-11-13T18:06:45.850Z,6.89
2022-11-13T18:09:30.792Z,6.83
2022-11-13T18:12:15.938Z,6.75
2022-11-13T18:15:00.830Z,6.71
2022-11-13T18:17:45.998Z,6.68
2022-11-13T18:20:31.331Z,6.65
2022-11-13T18:23:16.496Z,6.67
2022-11-13T18:26:16.815Z,6.64
2022-11-13T18:29:02.785Z,6.63
2022-11-13T18:31:47.794Z,6.61
2022-11-13T18:34:33.145Z,6.59
2022-11-13T18:37:18.331Z,6.54
2022-11-13T18:40:04.446Z,6.47
2022-11-13T18:42:51.145Z,6.48
2022-11-13T18:45:35.949Z,6.42
2022-11-13T18:48:21.186Z,6.38
2022-11-13T18:51:09.819Z,6.30
2022-11-13T18:53:55.679Z,6.14
2022-11-13T18:56:40.998Z,6.22
2022-11-13T18:59:25.818Z,6.24
2022-11-13T19:02:12.832Z,6.21
2022-11-13T19:04:57.761Z,6.19
2022-11-13T19:07:43.622Z,6.22
2022-11-13T19:10:28.487Z,6.32
2022-11-13T19:13:13.375Z,6.31
2022-11-13T19:16:13.237Z,6.30
2022-11-13T19:19:06.199Z,6.21
2022-11-13T19:21:52.070Z,6.11
2022-11-13T19:24:36.995Z,6.06
2022-11-13T19:27:22.039Z,6.00
2022-11-13T19:30:07.542Z,5.92
2022-11-13T19:32:52.614Z,5.88
2022-11-13T19:35:37.887Z,5.95
2022-11-13T19:38:23.019Z,5.93
2022-11-13T19:41:09.503Z,5.96
2022-11-13T19:43:56.914Z,6.08
2022-11-13T19:46:41.905Z,6.03
2022-11-13T19:49:26.942Z,5.89
2022-11-13T19:52:12.003Z,5.82
2022-11-13T19:54:56.972Z,5.85
2022-11-13T19:57:46.059Z,5.72
2022-11-13T20:00:31.105Z,5.71
2022-11-13T20:03:16.953Z,5.73
2022-11-13T20:06:02.256Z,5.69
2022-11-13T20:08:47.318Z,5.68
2022-11-13T20:11:33.848Z,5.77
2022-11-13T20:14:18.945Z,5.69
2022-11-13T20:17:03.925Z,5.67
2022-11-13T20:19:49.153Z,5.61
2022-11-13T20:22:34.848Z,5.50
2022-11-13T20:25:19.792Z,5.39
2022-11-13T20:28:04.675Z,5.30
2022-11-13T20:30:50.448Z,5.22
2022-11-13T20:33:35.590Z,5.20
2022-11-13T20:36:21.734Z,5.14
2022-11-13T20:39:09.343Z,5.11
2022-11-13T20:41:54.337Z,5.07
2022-11-13T20:44:39.497Z,5.04
2022-11-13T20:47:24.806Z,4.96
2022-11-13T20:50:10.462Z,4.94
2022-11-13T20:52:55.419Z,4.95
2022-11-13T20:55:40.518Z,4.91
2022-11-13T20:58:25.771Z,4.87
2022-11-13T21:01:13.053Z,4.79
2022-11-13T21:03:59.413Z,4.80
2022-11-13T21:06:44.454Z,4.76
2022-11-13T21:09:29.468Z,4.77
2022-11-13T21:12:14.649Z,4.69
2022-11-13T21:14:59.552Z,4.71
2022-11-13T21:17:44.761Z,4.72
2022-11-13T21:20:30.093Z,4.67
2022-11-13T21:23:15.080Z,4.62
2022-11-13T21:26:01.434Z,4.57
2022-11-13T21:28:46.851Z,4.49
2022-11-13T21:31:31.857Z,4.42
2022-11-13T21:34:17.013Z,4.40
2022-11-13T21:37:01.764Z,4.32
2022-11-13T21:39:47.048Z,4.41
2022-11-13T21:42:32.182Z,4.31
2022-11-13T21:45:19.761Z,4.32
2022-11-13T21:48:05.110Z,4.31
2022-11-13T21:50:50.352Z,4.33
2022-11-13T21:53:37.183Z,4.36
2022-11-13T21:56:22.851Z,4.45
2022-11-13T21:59:08.568Z,4.41
2022-11-13T22:01:53.693Z,4.38
2022-11-13T22:04:38.781Z,4.37
2022-11-13T22:07:24.033Z,4.35
2022-11-13T22:10:09.129Z,4.35
2022-11-13T22:12:54.095Z,4.31
2022-11-13T22:15:39.067Z,4.30
2022-11-13T22:18:24.405Z,4.25
2022-11-13T22:21:11.143Z,4.16
2022-11-13T22:23:57.029Z,4.14
2022-11-13T22:26:47.802Z,4.08
2022-11-13T22:29:32.978Z,4.05
2022-11-13T22:32:18.037Z,4.05
2022-11-13T22:35:02.936Z,4.05
2022-11-13T22:37:48.026Z,3.86
2022-11-13T22:40:33.326Z,3.89
2022-11-13T22:43:18.581Z,3.92
2022-11-13T22:46:11.573Z,3.92
2022-11-13T22:48:58.016Z,3.88
2022-11-13T22:51:43.098Z,3.92
2022-11-13T22:54:28.283Z,3.85
2022-11-13T22:57:13.524Z,3.84
2022-11-13T22:59:58.505Z,3.82
2022-11-13T23:02:47.232Z,3.82
2022-11-13T23:05:35.053Z,3.84
2022-11-13T23:08:20.061Z,3.81
2022-11-13T23:11:06.884Z,3.81
2022-11-13T23:13:54.725Z,3.76
2022-11-13T23:16:39.745Z,3.72
2022-11-13T23:19:24.761Z,3.67
2022-11-13T23:22:09.786Z,3.65
2022-11-13T23:24:56.187Z,3.64
2022-11-13T23:27:41.199Z,3.68
2022-11-13T23:30:26.755Z,3.78
2022-11-13T23:33:11.396Z,3.73
2022-11-13T23:35:56.435Z,3.65
2022-11-13T23:38:41.618Z,3.60
2022-11-13T23:41:26.748Z,3.66
2022-11-13T23:44:11.853Z,3.64
2022-11-13T23:46:56.784Z,3.61
2022-11-13T23:49:42.536Z,3.59
2022-11-13T23:52:27.607Z,3.59
2022-11-13T23:55:12.718Z,3.63
2022-11-13T23:58:02.335Z,3.64
